Edmonton Namao Alta., Canada
Current Conditions -  °F | °C
As of 11:00 AM on Friday 24 Oct 2014 (Local Time) from CYXD Reporting Station
Clear Clear  
Wind Chill: 38°   Ceiling: Unl
Heat Index: 45°   Visibility: 9mi
Dew Point: 30°   Wind: 15mph
Humidity: 57%   Direction: 250°WSW
Pressure: 29.84"   Gusts: NA
Location:  53.61°N, 113.46°W
Report Text: CYXD 241700Z AUTO 25013KT 9SM CLR 07/M01 A2984 RMK SLP120
Loading
Personal Weather Stations






























Interactive Weather Map
Tropical Storm Tracking
New forecast layout! Learn more

10-Day Weather Forecast

Advertisements
Track Severe Weather on mobile